sensor_id;sensor_type;location;lat;lon;timestamp;P1;durP1;ratioP1;P2;durP2;ratioP2
17193;SDS011;8713;48.388;10.928;2022-12-16T00:00:14;12.90;;;6.82;;
17193;SDS011;8713;48.388;10.928;2022-12-16T00:01:44;13.77;;;7.65;;
17193;SDS011;8713;48.388;10.928;2022-12-16T00:03:14;14.33;;;7.13;;
17193;SDS011;8713;48.388;10.928;2022-12-16T00:04:43;13.10;;;7.43;;
17193;SDS011;8713;48.388;10.928;2022-12-16T00:06:13;13.95;;;8.40;;
17193;SDS011;8713;48.388;10.928;2022-12-16T00:07:43;12.63;;;7.28;;
17193;SDS011;8713;48.388;10.928;2022-12-16T00:09:12;13.82;;;7.82;;
17193;SDS011;8713;48.388;10.928;2022-12-16T00:10:43;13.00;;;7.80;;
17193;SDS011;8713;48.388;10.928;2022-12-16T00:12:21;13.70;;;7.25;;
17193;SDS011;8713;48.388;10.928;2022-12-16T00:13:51;13.80;;;7.80;;
17193;SDS011;8713;48.388;10.928;2022-12-16T00:15:20;14.07;;;7.45;;
17193;SDS011;8713;48.388;10.928;2022-12-16T00:16:50;14.60;;;8.07;;
17193;SDS011;8713;48.388;10.928;2022-12-16T00:18:20;15.55;;;8.55;;
17193;SDS011;8713;48.388;10.928;2022-12-16T00:19:50;12.93;;;7.35;;
17193;SDS011;8713;48.388;10.928;2022-12-16T00:21:19;14.65;;;8.23;;
17193;SDS011;8713;48.388;10.928;2022-12-16T00:22:49;12.27;;;7.18;;
17193;SDS011;8713;48.388;10.928;2022-12-16T00:24:19;14.18;;;8.13;;
17193;SDS011;8713;48.388;10.928;2022-12-16T00:25:49;14.88;;;8.88;;
17193;SDS011;8713;48.388;10.928;2022-12-16T00:27:18;14.63;;;7.40;;
17193;SDS011;8713;48.388;10.928;2022-12-16T00:28:48;16.52;;;9.40;;
17193;SDS011;8713;48.388;10.928;2022-12-16T00:30:17;15.27;;;8.35;;
17193;SDS011;8713;48.388;10.928;2022-12-16T00:31:47;16.05;;;8.25;;
17193;SDS011;8713;48.388;10.928;2022-12-16T00:33:17;13.98;;;7.57;;
17193;SDS011;8713;48.388;10.928;2022-12-16T00:34:47;16.63;;;9.05;;
17193;SDS011;8713;48.388;10.928;2022-12-16T00:36:17;15.20;;;8.52;;
17193;SDS011;8713;48.388;10.928;2022-12-16T00:37:46;12.43;;;7.60;;
17193;SDS011;8713;48.388;10.928;2022-12-16T00:39:16;13.45;;;7.68;;
17193;SDS011;8713;48.388;10.928;2022-12-16T00:40:45;12.63;;;6.93;;
17193;SDS011;8713;48.388;10.928;2022-12-16T00:42:15;15.98;;;8.52;;
17193;SDS011;8713;48.388;10.928;2022-12-16T00:43:45;16.25;;;8.25;;
17193;SDS011;8713;48.388;10.928;2022-12-16T00:45:15;18.27;;;8.63;;
17193;SDS011;8713;48.388;10.928;2022-12-16T00:46:44;16.40;;;9.07;;
17193;SDS011;8713;48.388;10.928;2022-12-16T00:48:14;16.15;;;8.82;;
17193;SDS011;8713;48.388;10.928;2022-12-16T00:49:45;14.30;;;7.85;;
17193;SDS011;8713;48.388;10.928;2022-12-16T00:51:15;17.95;;;9.52;;
17193;SDS011;8713;48.388;10.928;2022-12-16T00:52:46;17.50;;;9.32;;
17193;SDS011;8713;48.388;10.928;2022-12-16T00:54:16;15.38;;;7.65;;
17193;SDS011;8713;48.388;10.928;2022-12-16T00:55:46;20.23;;;10.10;;
17193;SDS011;8713;48.388;10.928;2022-12-16T00:57:15;15.60;;;8.05;;
17193;SDS011;8713;48.388;10.928;2022-12-16T00:58:45;16.95;;;8.93;;
17193;SDS011;8713;48.388;10.928;2022-12-16T01:00:15;17.40;;;9.20;;
17193;SDS011;8713;48.388;10.928;2022-12-16T01:01:46;16.02;;;9.30;;
17193;SDS011;8713;48.388;10.928;2022-12-16T01:03:15;20.45;;;11.10;;
17193;SDS011;8713;48.388;10.928;2022-12-16T01:04:45;19.38;;;9.27;;
17193;SDS011;8713;48.388;10.928;2022-12-16T01:06:15;15.10;;;8.25;;
17193;SDS011;8713;48.388;10.928;2022-12-16T01:07:45;14.80;;;8.10;;
17193;SDS011;8713;48.388;10.928;2022-12-16T01:09:15;31.85;;;12.15;;
17193;SDS011;8713;48.388;10.928;2022-12-16T01:10:49;28.88;;;12.40;;
17193;SDS011;8713;48.388;10.928;2022-12-16T01:12:21;23.88;;;10.63;;
17193;SDS011;8713;48.388;10.928;2022-12-16T01:13:52;18.00;;;9.13;;
17193;SDS011;8713;48.388;10.928;2022-12-16T01:15:22;13.93;;;8.13;;
17193;SDS011;8713;48.388;10.928;2022-12-16T01:16:52;16.90;;;8.90;;
17193;SDS011;8713;48.388;10.928;2022-12-16T01:18:21;12.52;;;6.70;;
17193;SDS011;8713;48.388;10.928;2022-12-16T01:19:51;16.63;;;8.32;;
17193;SDS011;8713;48.388;10.928;2022-12-16T01:21:21;13.75;;;7.18;;
17193;SDS011;8713;48.388;10.928;2022-12-16T01:22:50;13.40;;;7.38;;
17193;SDS011;8713;48.388;10.928;2022-12-16T01:24:20;15.00;;;7.63;;
17193;SDS011;8713;48.388;10.928;2022-12-16T01:25:51;13.20;;;7.40;;
17193;SDS011;8713;48.388;10.928;2022-12-16T01:27:21;12.82;;;7.95;;
17193;SDS011;8713;48.388;10.928;2022-12-16T01:28:51;14.02;;;8.43;;
17193;SDS011;8713;48.388;10.928;2022-12-16T01:30:20;12.68;;;7.57;;
17193;SDS011;8713;48.388;10.928;2022-12-16T01:31:50;13.35;;;6.95;;
17193;SDS011;8713;48.388;10.928;2022-12-16T01:33:20;13.95;;;7.38;;
17193;SDS011;8713;48.388;10.928;2022-12-16T01:34:50;11.65;;;6.80;;
17193;SDS011;8713;48.388;10.928;2022-12-16T01:36:20;12.48;;;6.55;;
17193;SDS011;8713;48.388;10.928;2022-12-16T01:37:50;12.60;;;7.35;;
17193;SDS011;8713;48.388;10.928;2022-12-16T01:39:19;13.20;;;7.05;;
17193;SDS011;8713;48.388;10.928;2022-12-16T01:40:49;12.00;;;6.45;;
17193;SDS011;8713;48.388;10.928;2022-12-16T01:42:22;13.63;;;7.10;;
17193;SDS011;8713;48.388;10.928;2022-12-16T01:44:09;12.10;;;6.20;;
17193;SDS011;8713;48.388;10.928;2022-12-16T01:45:44;10.57;;;6.10;;
17193;SDS011;8713;48.388;10.928;2022-12-16T01:47:15;14.15;;;7.82;;
17193;SDS011;8713;48.388;10.928;2022-12-16T01:49:02;11.65;;;7.00;;
17193;SDS011;8713;48.388;10.928;2022-12-16T01:50:35;13.48;;;7.57;;
17193;SDS011;8713;48.388;10.928;2022-12-16T01:52:06;10.73;;;6.25;;
17193;SDS011;8713;48.388;10.928;2022-12-16T01:53:40;10.70;;;5.95;;
17193;SDS011;8713;48.388;10.928;2022-12-16T01:55:12;11.40;;;6.28;;
17193;SDS011;8713;48.388;10.928;2022-12-16T01:56:53;11.93;;;6.88;;
17193;SDS011;8713;48.388;10.928;2022-12-16T01:58:27;10.27;;;5.95;;
17193;SDS011;8713;48.388;10.928;2022-12-16T02:00:00;10.80;;;5.93;;
17193;SDS011;8713;48.388;10.928;2022-12-16T02:01:42;9.07;;;5.35;;
17193;SDS011;8713;48.388;10.928;2022-12-16T02:03:11;14.35;;;8.05;;
17193;SDS011;8713;48.388;10.928;2022-12-16T02:04:41;15.00;;;7.60;;
17193;SDS011;8713;48.388;10.928;2022-12-16T02:06:33;15.50;;;8.10;;
17193;SDS011;8713;48.388;10.928;2022-12-16T02:08:09;14.20;;;7.20;;
17193;SDS011;8713;48.388;10.928;2022-12-16T02:09:43;11.98;;;7.20;;
17193;SDS011;8713;48.388;10.928;2022-12-16T02:12:56;11.45;;;6.82;;
17193;SDS011;8713;48.388;10.928;2022-12-16T02:18:14;15.10;;;8.10;;
17193;SDS011;8713;48.388;10.928;2022-12-16T02:26:41;12.48;;;6.80;;
17193;SDS011;8713;48.388;10.928;2022-12-16T02:28:34;10.20;;;4.85;;
17193;SDS011;8713;48.388;10.928;2022-12-16T02:35:27;13.20;;;6.35;;
17193;SDS011;8713;48.388;10.928;2022-12-16T02:37:12;16.20;;;7.57;;
17193;SDS011;8713;48.388;10.928;2022-12-16T02:42:30;13.90;;;6.90;;
17193;SDS011;8713;48.388;10.928;2022-12-16T02:44:10;16.52;;;7.60;;
17193;SDS011;8713;48.388;10.928;2022-12-16T02:45:40;14.18;;;6.45;;
17193;SDS011;8713;48.388;10.928;2022-12-16T02:47:10;13.73;;;7.18;;
17193;SDS011;8713;48.388;10.928;2022-12-16T02:48:39;14.55;;;7.07;;
17193;SDS011;8713;48.388;10.928;2022-12-16T02:50:54;14.95;;;7.93;;
17193;SDS011;8713;48.388;10.928;2022-12-16T02:52:08;17.83;;;8.88;;
17193;SDS011;8713;48.388;10.928;2022-12-16T02:53:37;16.10;;;7.80;;
17193;SDS011;8713;48.388;10.928;2022-12-16T02:55:08;14.85;;;7.43;;
17193;SDS011;8713;48.388;10.928;2022-12-16T02:56:58;10.93;;;6.47;;
17193;SDS011;8713;48.388;10.928;2022-12-16T03:01:45;13.65;;;7.38;;
17193;SDS011;8713;48.388;10.928;2022-12-16T03:04:45;13.40;;;7.28;;
17193;SDS011;8713;48.388;10.928;2022-12-16T03:06:20;14.50;;;7.32;;
17193;SDS011;8713;48.388;10.928;2022-12-16T03:07:50;15.00;;;7.47;;
17193;SDS011;8713;48.388;10.928;2022-12-16T03:09:22;15.15;;;7.40;;
17193;SDS011;8713;48.388;10.928;2022-12-16T03:10:57;16.63;;;8.77;;
17193;SDS011;8713;48.388;10.928;2022-12-16T03:12:29;14.57;;;7.80;;
17193;SDS011;8713;48.388;10.928;2022-12-16T03:13:59;19.77;;;9.85;;
17193;SDS011;8713;48.388;10.928;2022-12-16T03:15:29;18.40;;;8.60;;
17193;SDS011;8713;48.388;10.928;2022-12-16T03:17:01;15.73;;;7.80;;
17193;SDS011;8713;48.388;10.928;2022-12-16T03:18:32;17.08;;;8.85;;
17193;SDS011;8713;48.388;10.928;2022-12-16T03:20:06;17.33;;;8.98;;
17193;SDS011;8713;48.388;10.928;2022-12-16T03:21:44;17.10;;;8.55;;
17193;SDS011;8713;48.388;10.928;2022-12-16T03:23:43;16.67;;;8.23;;
17193;SDS011;8713;48.388;10.928;2022-12-16T03:25:21;17.35;;;9.07;;
17193;SDS011;8713;48.388;10.928;2022-12-16T03:29:04;18.23;;;8.43;;
17193;SDS011;8713;48.388;10.928;2022-12-16T03:30:44;15.02;;;7.80;;
17193;SDS011;8713;48.388;10.928;2022-12-16T03:32:29;16.13;;;8.25;;
17193;SDS011;8713;48.388;10.928;2022-12-16T03:34:26;15.98;;;8.52;;
17193;SDS011;8713;48.388;10.928;2022-12-16T03:36:09;10.85;;;6.07;;
17193;SDS011;8713;48.388;10.928;2022-12-16T03:37:43;15.13;;;7.50;;
17193;SDS011;8713;48.388;10.928;2022-12-16T03:39:16;16.75;;;8.52;;
17193;SDS011;8713;48.388;10.928;2022-12-16T03:40:48;19.83;;;9.88;;
17193;SDS011;8713;48.388;10.928;2022-12-16T03:42:18;16.17;;;8.25;;
17193;SDS011;8713;48.388;10.928;2022-12-16T03:43:47;14.75;;;7.80;;
17193;SDS011;8713;48.388;10.928;2022-12-16T03:45:21;14.80;;;7.88;;
17193;SDS011;8713;48.388;10.928;2022-12-16T03:46:53;18.15;;;8.40;;
17193;SDS011;8713;48.388;10.928;2022-12-16T03:48:24;15.35;;;8.15;;
17193;SDS011;8713;48.388;10.928;2022-12-16T03:49:54;17.10;;;8.60;;
17193;SDS011;8713;48.388;10.928;2022-12-16T03:51:23;15.93;;;8.77;;
17193;SDS011;8713;48.388;10.928;2022-12-16T03:52:53;16.10;;;8.10;;
17193;SDS011;8713;48.388;10.928;2022-12-16T03:54:23;15.43;;;7.82;;
17193;SDS011;8713;48.388;10.928;2022-12-16T03:55:53;16.30;;;8.15;;
17193;SDS011;8713;48.388;10.928;2022-12-16T03:57:23;19.33;;;9.30;;
17193;SDS011;8713;48.388;10.928;2022-12-16T03:58:52;15.73;;;8.70;;
17193;SDS011;8713;48.388;10.928;2022-12-16T04:00:22;14.95;;;7.47;;
17193;SDS011;8713;48.388;10.928;2022-12-16T04:01:53;15.00;;;7.97;;
17193;SDS011;8713;48.388;10.928;2022-12-16T04:03:23;15.13;;;7.82;;
17193;SDS011;8713;48.388;10.928;2022-12-16T04:04:54;15.45;;;7.60;;
17193;SDS011;8713;48.388;10.928;2022-12-16T04:06:24;13.35;;;7.38;;
17193;SDS011;8713;48.388;10.928;2022-12-16T04:07:53;12.85;;;7.47;;
17193;SDS011;8713;48.388;10.928;2022-12-16T04:09:23;12.20;;;6.93;;
17193;SDS011;8713;48.388;10.928;2022-12-16T04:10:52;13.48;;;7.13;;
17193;SDS011;8713;48.388;10.928;2022-12-16T04:12:41;11.38;;;6.50;;
17193;SDS011;8713;48.388;10.928;2022-12-16T04:14:28;13.52;;;7.03;;
17193;SDS011;8713;48.388;10.928;2022-12-16T04:16:16;10.63;;;5.55;;
17193;SDS011;8713;48.388;10.928;2022-12-16T04:18:04;11.52;;;5.68;;
17193;SDS011;8713;48.388;10.928;2022-12-16T04:19:56;10.82;;;5.47;;
17193;SDS011;8713;48.388;10.928;2022-12-16T04:21:44;13.15;;;6.30;;
17193;SDS011;8713;48.388;10.928;2022-12-16T04:23:40;14.23;;;6.68;;
17193;SDS011;8713;48.388;10.928;2022-12-16T04:25:37;14.20;;;6.70;;
17193;SDS011;8713;48.388;10.928;2022-12-16T04:27:06;10.68;;;5.72;;
17193;SDS011;8713;48.388;10.928;2022-12-16T04:28:54;9.88;;;5.43;;
17193;SDS011;8713;48.388;10.928;2022-12-16T04:30:24;15.80;;;7.13;;
17193;SDS011;8713;48.388;10.928;2022-12-16T04:31:55;11.18;;;5.50;;
17193;SDS011;8713;48.388;10.928;2022-12-16T04:33:25;9.63;;;5.43;;
17193;SDS011;8713;48.388;10.928;2022-12-16T04:35:13;10.73;;;5.75;;
17193;SDS011;8713;48.388;10.928;2022-12-16T04:37:02;11.40;;;5.68;;
17193;SDS011;8713;48.388;10.928;2022-12-16T04:38:51;11.48;;;6.25;;
17193;SDS011;8713;48.388;10.928;2022-12-16T04:40:38;12.38;;;6.72;;
17193;SDS011;8713;48.388;10.928;2022-12-16T04:42:26;15.38;;;8.23;;
17193;SDS011;8713;48.388;10.928;2022-12-16T04:44:14;13.27;;;6.70;;
17193;SDS011;8713;48.388;10.928;2022-12-16T04:46:02;14.23;;;7.03;;
17193;SDS011;8713;48.388;10.928;2022-12-16T04:47:51;12.52;;;6.65;;
17193;SDS011;8713;48.388;10.928;2022-12-16T04:49:51;10.05;;;5.43;;
17193;SDS011;8713;48.388;10.928;2022-12-16T04:51:39;11.95;;;6.50;;
17193;SDS011;8713;48.388;10.928;2022-12-16T04:53:27;14.77;;;6.93;;
17193;SDS011;8713;48.388;10.928;2022-12-16T04:55:15;14.52;;;6.30;;
17193;SDS011;8713;48.388;10.928;2022-12-16T04:57:23;17.10;;;7.30;;
17193;SDS011;8713;48.388;10.928;2022-12-16T04:59:11;12.40;;;6.32;;
17193;SDS011;8713;48.388;10.928;2022-12-16T05:01:00;14.18;;;6.78;;
17193;SDS011;8713;48.388;10.928;2022-12-16T05:02:48;14.60;;;6.45;;
17193;SDS011;8713;48.388;10.928;2022-12-16T05:04:37;14.83;;;6.60;;
17193;SDS011;8713;48.388;10.928;2022-12-16T05:06:24;11.93;;;6.57;;
17193;SDS011;8713;48.388;10.928;2022-12-16T05:08:12;12.15;;;6.25;;
17193;SDS011;8713;48.388;10.928;2022-12-16T05:10:00;12.63;;;6.75;;
17193;SDS011;8713;48.388;10.928;2022-12-16T05:11:48;16.85;;;7.25;;
17193;SDS011;8713;48.388;10.928;2022-12-16T05:13:37;13.77;;;7.15;;
17193;SDS011;8713;48.388;10.928;2022-12-16T05:15:25;15.85;;;7.97;;
17193;SDS011;8713;48.388;10.928;2022-12-16T05:17:12;15.98;;;7.30;;
17193;SDS011;8713;48.388;10.928;2022-12-16T05:19:01;17.05;;;8.10;;
17193;SDS011;8713;48.388;10.928;2022-12-16T05:20:49;15.85;;;8.15;;
17193;SDS011;8713;48.388;10.928;2022-12-16T05:22:38;12.25;;;7.30;;
17193;SDS011;8713;48.388;10.928;2022-12-16T05:24:26;15.80;;;8.35;;
17193;SDS011;8713;48.388;10.928;2022-12-16T05:26:14;14.40;;;7.32;;
17193;SDS011;8713;48.388;10.928;2022-12-16T05:28:03;13.90;;;7.45;;
17193;SDS011;8713;48.388;10.928;2022-12-16T05:29:52;12.98;;;7.38;;
17193;SDS011;8713;48.388;10.928;2022-12-16T05:31:41;14.25;;;6.38;;
17193;SDS011;8713;48.388;10.928;2022-12-16T05:33:30;13.90;;;7.63;;
17193;SDS011;8713;48.388;10.928;2022-12-16T05:35:18;15.82;;;7.50;;
17193;SDS011;8713;48.388;10.928;2022-12-16T05:37:06;13.77;;;7.38;;
17193;SDS011;8713;48.388;10.928;2022-12-16T05:38:53;16.83;;;7.93;;
17193;SDS011;8713;48.388;10.928;2022-12-16T05:40:42;14.30;;;7.32;;
17193;SDS011;8713;48.388;10.928;2022-12-16T05:42:29;15.07;;;7.18;;
17193;SDS011;8713;48.388;10.928;2022-12-16T05:44:18;22.58;;;10.38;;
17193;SDS011;8713;48.388;10.928;2022-12-16T05:46:06;18.02;;;8.00;;
17193;SDS011;8713;48.388;10.928;2022-12-16T05:47:54;16.42;;;7.97;;
17193;SDS011;8713;48.388;10.928;2022-12-16T05:49:42;17.92;;;7.95;;
17193;SDS011;8713;48.388;10.928;2022-12-16T05:51:31;22.30;;;9.63;;
17193;SDS011;8713;48.388;10.928;2022-12-16T05:53:19;16.17;;;7.55;;
17193;SDS011;8713;48.388;10.928;2022-12-16T05:55:07;15.63;;;7.85;;
17193;SDS011;8713;48.388;10.928;2022-12-16T05:56:55;14.55;;;7.65;;
17193;SDS011;8713;48.388;10.928;2022-12-16T05:58:43;17.40;;;8.18;;
17193;SDS011;8713;48.388;10.928;2022-12-16T06:00:31;19.85;;;8.68;;
17193;SDS011;8713;48.388;10.928;2022-12-16T06:02:19;15.93;;;8.07;;
17193;SDS011;8713;48.388;10.928;2022-12-16T06:04:07;20.55;;;9.70;;
17193;SDS011;8713;48.388;10.928;2022-12-16T06:05:55;19.65;;;9.65;;
17193;SDS011;8713;48.388;10.928;2022-12-16T06:07:48;17.77;;;9.02;;
17193;SDS011;8713;48.388;10.928;2022-12-16T06:09:38;17.63;;;8.77;;
17193;SDS011;8713;48.388;10.928;2022-12-16T06:11:26;19.88;;;9.85;;
17193;SDS011;8713;48.388;10.928;2022-12-16T06:13:14;18.88;;;9.32;;
17193;SDS011;8713;48.388;10.928;2022-12-16T06:15:03;17.50;;;9.05;;
17193;SDS011;8713;48.388;10.928;2022-12-16T06:16:51;20.00;;;9.77;;
17193;SDS011;8713;48.388;10.928;2022-12-16T06:18:39;19.92;;;9.65;;
17193;SDS011;8713;48.388;10.928;2022-12-16T06:20:27;18.67;;;9.32;;
17193;SDS011;8713;48.388;10.928;2022-12-16T06:22:15;18.98;;;9.85;;
17193;SDS011;8713;48.388;10.928;2022-12-16T06:24:04;22.35;;;10.52;;
17193;SDS011;8713;48.388;10.928;2022-12-16T06:26:09;18.13;;;8.38;;
17193;SDS011;8713;48.388;10.928;2022-12-16T06:27:58;20.17;;;8.77;;
17193;SDS011;8713;48.388;10.928;2022-12-16T06:29:47;22.60;;;10.18;;
17193;SDS011;8713;48.388;10.928;2022-12-16T06:31:35;21.92;;;10.23;;
17193;SDS011;8713;48.388;10.928;2022-12-16T06:33:23;22.75;;;9.13;;
17193;SDS011;8713;48.388;10.928;2022-12-16T06:35:12;20.00;;;9.52;;
17193;SDS011;8713;48.388;10.928;2022-12-16T06:36:59;20.83;;;9.32;;
17193;SDS011;8713;48.388;10.928;2022-12-16T06:38:47;21.23;;;10.45;;
17193;SDS011;8713;48.388;10.928;2022-12-16T06:40:35;21.00;;;9.15;;
17193;SDS011;8713;48.388;10.928;2022-12-16T06:42:23;22.48;;;10.30;;
17193;SDS011;8713;48.388;10.928;2022-12-16T06:44:11;15.68;;;7.90;;
17193;SDS011;8713;48.388;10.928;2022-12-16T06:45:59;19.70;;;10.30;;
17193;SDS011;8713;48.388;10.928;2022-12-16T06:47:48;22.40;;;10.88;;
17193;SDS011;8713;48.388;10.928;2022-12-16T06:49:36;18.23;;;9.85;;
17193;SDS011;8713;48.388;10.928;2022-12-16T06:51:24;19.48;;;9.82;;
17193;SDS011;8713;48.388;10.928;2022-12-16T06:53:12;18.85;;;9.15;;
17193;SDS011;8713;48.388;10.928;2022-12-16T06:55:01;18.65;;;9.05;;
17193;SDS011;8713;48.388;10.928;2022-12-16T06:56:49;20.70;;;9.90;;
17193;SDS011;8713;48.388;10.928;2022-12-16T06:58:37;19.02;;;8.77;;
17193;SDS011;8713;48.388;10.928;2022-12-16T07:00:25;19.60;;;10.63;;
17193;SDS011;8713;48.388;10.928;2022-12-16T07:02:13;15.15;;;7.95;;
17193;SDS011;8713;48.388;10.928;2022-12-16T07:04:01;20.95;;;10.65;;
17193;SDS011;8713;48.388;10.928;2022-12-16T07:05:52;24.92;;;10.77;;
17193;SDS011;8713;48.388;10.928;2022-12-16T07:07:47;22.55;;;10.85;;
17193;SDS011;8713;48.388;10.928;2022-12-16T07:09:37;20.52;;;10.48;;
17193;SDS011;8713;48.388;10.928;2022-12-16T07:11:25;20.30;;;9.80;;
17193;SDS011;8713;48.388;10.928;2022-12-16T07:13:13;18.58;;;9.30;;
17193;SDS011;8713;48.388;10.928;2022-12-16T07:15:01;14.68;;;7.03;;
17193;SDS011;8713;48.388;10.928;2022-12-16T07:16:49;19.70;;;9.43;;
17193;SDS011;8713;48.388;10.928;2022-12-16T07:18:37;18.85;;;10.27;;
17193;SDS011;8713;48.388;10.928;2022-12-16T07:20:25;20.20;;;10.10;;
17193;SDS011;8713;48.388;10.928;2022-12-16T07:22:13;19.52;;;10.13;;
17193;SDS011;8713;48.388;10.928;2022-12-16T07:24:01;17.90;;;9.38;;
17193;SDS011;8713;48.388;10.928;2022-12-16T07:25:50;14.23;;;8.15;;
17193;SDS011;8713;48.388;10.928;2022-12-16T07:27:38;17.10;;;9.25;;
17193;SDS011;8713;48.388;10.928;2022-12-16T07:29:26;23.63;;;10.45;;
17193;SDS011;8713;48.388;10.928;2022-12-16T07:31:14;19.50;;;10.18;;
17193;SDS011;8713;48.388;10.928;2022-12-16T07:33:03;15.35;;;8.55;;
17193;SDS011;8713;48.388;10.928;2022-12-16T07:34:51;19.40;;;10.10;;
17193;SDS011;8713;48.388;10.928;2022-12-16T07:36:39;19.75;;;9.38;;
17193;SDS011;8713;48.388;10.928;2022-12-16T07:38:07;17.50;;;8.68;;
17193;SDS011;8713;48.388;10.928;2022-12-16T07:39:54;21.08;;;10.35;;
17193;SDS011;8713;48.388;10.928;2022-12-16T07:41:41;19.25;;;9.55;;
17193;SDS011;8713;48.388;10.928;2022-12-16T07:43:29;15.57;;;8.13;;
17193;SDS011;8713;48.388;10.928;2022-12-16T07:45:15;23.17;;;10.85;;
17193;SDS011;8713;48.388;10.928;2022-12-16T07:47:02;19.27;;;9.38;;
17193;SDS011;8713;48.388;10.928;2022-12-16T07:48:50;19.33;;;9.75;;
17193;SDS011;8713;48.388;10.928;2022-12-16T07:50:39;22.20;;;10.18;;
17193;SDS011;8713;48.388;10.928;2022-12-16T07:52:26;19.80;;;10.52;;
17193;SDS011;8713;48.388;10.928;2022-12-16T07:54:13;19.35;;;10.00;;
17193;SDS011;8713;48.388;10.928;2022-12-16T07:55:41;19.83;;;10.52;;
17193;SDS011;8713;48.388;10.928;2022-12-16T07:57:09;19.00;;;10.25;;
17193;SDS011;8713;48.388;10.928;2022-12-16T07:58:56;21.98;;;10.93;;
17193;SDS011;8713;48.388;10.928;2022-12-16T08:00:43;18.98;;;10.18;;
17193;SDS011;8713;48.388;10.928;2022-12-16T08:02:30;18.00;;;9.25;;
17193;SDS011;8713;48.388;10.928;2022-12-16T08:04:17;17.92;;;8.15;;
17193;SDS011;8713;48.388;10.928;2022-12-16T08:05:45;20.02;;;10.07;;
17193;SDS011;8713;48.388;10.928;2022-12-16T08:07:17;19.73;;;9.35;;
17193;SDS011;8713;48.388;10.928;2022-12-16T08:08:45;18.27;;;9.60;;
17193;SDS011;8713;48.388;10.928;2022-12-16T08:10:13;18.35;;;10.00;;
17193;SDS011;8713;48.388;10.928;2022-12-16T08:11:41;18.73;;;9.50;;
17193;SDS011;8713;48.388;10.928;2022-12-16T08:13:09;17.55;;;8.88;;
17193;SDS011;8713;48.388;10.928;2022-12-16T08:14:37;23.45;;;11.05;;
17193;SDS011;8713;48.388;10.928;2022-12-16T08:16:06;19.92;;;10.77;;
17193;SDS011;8713;48.388;10.928;2022-12-16T08:17:34;18.77;;;9.80;;
17193;SDS011;8713;48.388;10.928;2022-12-16T08:19:02;15.70;;;9.57;;
17193;SDS011;8713;48.388;10.928;2022-12-16T08:20:30;19.00;;;9.40;;
17193;SDS011;8713;48.388;10.928;2022-12-16T08:21:58;15.93;;;8.00;;
17193;SDS011;8713;48.388;10.928;2022-12-16T08:23:26;15.20;;;7.78;;
17193;SDS011;8713;48.388;10.928;2022-12-16T08:24:54;15.65;;;8.38;;
17193;SDS011;8713;48.388;10.928;2022-12-16T08:26:22;19.65;;;10.07;;
17193;SDS011;8713;48.388;10.928;2022-12-16T08:27:56;17.10;;;8.82;;
17193;SDS011;8713;48.388;10.928;2022-12-16T08:29:24;20.48;;;10.88;;
17193;SDS011;8713;48.388;10.928;2022-12-16T08:31:11;18.05;;;9.00;;
17193;SDS011;8713;48.388;10.928;2022-12-16T08:32:39;19.30;;;8.93;;
17193;SDS011;8713;48.388;10.928;2022-12-16T08:34:07;19.65;;;8.68;;
17193;SDS011;8713;48.388;10.928;2022-12-16T08:35:35;20.08;;;9.27;;
17193;SDS011;8713;48.388;10.928;2022-12-16T08:37:03;20.50;;;9.73;;
17193;SDS011;8713;48.388;10.928;2022-12-16T08:38:32;17.23;;;9.13;;
17193;SDS011;8713;48.388;10.928;2022-12-16T08:40:00;19.77;;;9.88;;
17193;SDS011;8713;48.388;10.928;2022-12-16T08:41:28;19.65;;;10.73;;
17193;SDS011;8713;48.388;10.928;2022-12-16T08:43:00;17.10;;;9.23;;
17193;SDS011;8713;48.388;10.928;2022-12-16T08:44:29;20.60;;;10.90;;
17193;SDS011;8713;48.388;10.928;2022-12-16T08:45:57;18.30;;;9.18;;
17193;SDS011;8713;48.388;10.928;2022-12-16T08:47:25;18.08;;;9.90;;
17193;SDS011;8713;48.388;10.928;2022-12-16T08:48:52;17.80;;;9.38;;
17193;SDS011;8713;48.388;10.928;2022-12-16T08:50:30;19.25;;;8.90;;
17193;SDS011;8713;48.388;10.928;2022-12-16T08:51:58;21.15;;;9.88;;
17193;SDS011;8713;48.388;10.928;2022-12-16T08:53:26;17.75;;;9.35;;
17193;SDS011;8713;48.388;10.928;2022-12-16T08:55:13;17.92;;;9.23;;
17193;SDS011;8713;48.388;10.928;2022-12-16T08:57:00;16.88;;;9.00;;
17193;SDS011;8713;48.388;10.928;2022-12-16T08:58:47;17.40;;;8.70;;
17193;SDS011;8713;48.388;10.928;2022-12-16T09:00:15;20.85;;;9.45;;
17193;SDS011;8713;48.388;10.928;2022-12-16T09:01:43;16.80;;;8.88;;
17193;SDS011;8713;48.388;10.928;2022-12-16T09:03:11;18.48;;;8.70;;
17193;SDS011;8713;48.388;10.928;2022-12-16T09:04:39;14.32;;;7.28;;
17193;SDS011;8713;48.388;10.928;2022-12-16T09:06:07;15.68;;;7.57;;
17193;SDS011;8713;48.388;10.928;2022-12-16T09:07:35;14.50;;;7.85;;
17193;SDS011;8713;48.388;10.928;2022-12-16T09:09:02;18.38;;;8.15;;
17193;SDS011;8713;48.388;10.928;2022-12-16T09:10:30;12.35;;;6.53;;
17193;SDS011;8713;48.388;10.928;2022-12-16T09:11:58;14.48;;;7.32;;
17193;SDS011;8713;48.388;10.928;2022-12-16T09:13:26;13.13;;;6.95;;
17193;SDS011;8713;48.388;10.928;2022-12-16T09:14:54;15.65;;;8.50;;
17193;SDS011;8713;48.388;10.928;2022-12-16T09:16:22;14.20;;;7.18;;
17193;SDS011;8713;48.388;10.928;2022-12-16T09:18:11;17.75;;;8.82;;
17193;SDS011;8713;48.388;10.928;2022-12-16T09:19:58;21.95;;;9.73;;
17193;SDS011;8713;48.388;10.928;2022-12-16T09:21:46;17.15;;;8.20;;
17193;SDS011;8713;48.388;10.928;2022-12-16T09:23:14;19.92;;;9.65;;
17193;SDS011;8713;48.388;10.928;2022-12-16T09:24:51;19.95;;;8.90;;
17193;SDS011;8713;48.388;10.928;2022-12-16T09:26:38;17.80;;;8.30;;
17193;SDS011;8713;48.388;10.928;2022-12-16T09:28:06;18.38;;;8.68;;
17193;SDS011;8713;48.388;10.928;2022-12-16T09:29:53;15.93;;;7.50;;
17193;SDS011;8713;48.388;10.928;2022-12-16T09:31:41;15.88;;;8.02;;
17193;SDS011;8713;48.388;10.928;2022-12-16T09:33:28;16.52;;;8.27;;
17193;SDS011;8713;48.388;10.928;2022-12-16T09:35:15;15.23;;;7.22;;
17193;SDS011;8713;48.388;10.928;2022-12-16T09:37:01;18.90;;;8.65;;
17193;SDS011;8713;48.388;10.928;2022-12-16T09:38:48;20.73;;;9.68;;
17193;SDS011;8713;48.388;10.928;2022-12-16T09:40:40;19.60;;;10.07;;
17193;SDS011;8713;48.388;10.928;2022-12-16T09:47:18;20.52;;;9.20;;
17193;SDS011;8713;48.388;10.928;2022-12-16T09:48:28;18.45;;;8.13;;
17193;SDS011;8713;48.388;10.928;2022-12-16T09:50:25;13.95;;;7.03;;
17193;SDS011;8713;48.388;10.928;2022-12-16T09:51:54;15.27;;;8.43;;
17193;SDS011;8713;48.388;10.928;2022-12-16T09:53:23;16.02;;;8.32;;
17193;SDS011;8713;48.388;10.928;2022-12-16T09:54:52;15.95;;;6.63;;
17193;SDS011;8713;48.388;10.928;2022-12-16T09:56:22;12.07;;;5.95;;
17193;SDS011;8713;48.388;10.928;2022-12-16T09:57:57;15.15;;;8.60;;
17193;SDS011;8713;48.388;10.928;2022-12-16T09:59:35;16.00;;;7.50;;
17193;SDS011;8713;48.388;10.928;2022-12-16T10:01:06;16.25;;;8.43;;
17193;SDS011;8713;48.388;10.928;2022-12-16T10:02:38;14.35;;;6.88;;
17193;SDS011;8713;48.388;10.928;2022-12-16T10:04:06;13.10;;;7.68;;
17193;SDS011;8713;48.388;10.928;2022-12-16T10:05:44;13.38;;;7.20;;
17193;SDS011;8713;48.388;10.928;2022-12-16T10:07:23;20.88;;;9.48;;
17193;SDS011;8713;48.388;10.928;2022-12-16T10:09:01;16.08;;;8.70;;
17193;SDS011;8713;48.388;10.928;2022-12-16T10:10:42;17.08;;;8.27;;
17193;SDS011;8713;48.388;10.928;2022-12-16T10:12:31;17.20;;;8.48;;
17193;SDS011;8713;48.388;10.928;2022-12-16T10:14:08;16.35;;;8.57;;
17193;SDS011;8713;48.388;10.928;2022-12-16T10:17:23;15.68;;;8.43;;